createdAt,value
2019-04-28T00:02:11.739Z,9.38
2019-04-28T00:04:42.890Z,9.35
2019-04-28T00:07:14.285Z,9.38
2019-04-28T00:09:45.331Z,9.37
2019-04-28T00:12:16.310Z,9.38
2019-04-28T00:14:47.292Z,9.40
2019-04-28T00:17:18.138Z,9.26
2019-04-28T00:19:49.166Z,9.20
2019-04-28T00:22:27.713Z,9.21
2019-04-28T00:25:06.534Z,9.10
2019-04-28T00:27:37.640Z,9.08
2019-04-28T00:30:11.729Z,9.00
2019-04-28T00:32:42.924Z,8.98
2019-04-28T00:35:14.120Z,9.00
2019-04-28T00:37:45.413Z,8.93
2019-04-28T00:40:16.505Z,9.00
2019-04-28T00:42:47.570Z,8.96
2019-04-28T00:45:18.564Z,8.94
2019-04-28T00:47:51.037Z,8.97
2019-04-28T00:50:23.453Z,8.95
2019-04-28T00:52:56.231Z,9.04
2019-04-28T00:55:27.125Z,8.96
2019-04-28T00:57:58.147Z,8.91
2019-04-28T01:00:34.028Z,9.00
2019-04-28T01:03:06.248Z,8.94
2019-04-28T01:05:37.285Z,8.98
2019-04-28T01:08:08.165Z,9.00
2019-04-28T01:10:40.898Z,9.00
2019-04-28T01:13:12.136Z,8.96
2019-04-28T01:15:53.395Z,8.99
2019-04-28T01:18:50.198Z,9.09
2019-04-28T01:21:25.788Z,9.04
2019-04-28T01:23:57.461Z,9.04
2019-04-28T01:26:29.987Z,9.11
2019-04-28T01:29:10.892Z,9.03
2019-04-28T01:31:52.566Z,9.09
2019-04-28T01:34:24.444Z,9.10
2019-04-28T01:36:57.363Z,9.09
2019-04-28T01:39:29.722Z,9.13
2019-04-28T01:42:00.944Z,9.14
2019-04-28T01:44:31.896Z,9.07
2019-04-28T01:47:02.869Z,9.08
2019-04-28T01:49:33.833Z,9.04
2019-04-28T01:52:04.800Z,9.17
2019-04-28T01:54:35.781Z,9.13
2019-04-28T01:57:06.725Z,9.22
2019-04-28T01:59:37.767Z,9.12
2019-04-28T02:02:10.234Z,9.31
2019-04-28T02:04:42.438Z,9.43
2019-04-28T02:07:13.362Z,9.45
2019-04-28T02:09:44.337Z,9.29
2019-04-28T02:12:15.262Z,9.26
2019-04-28T02:14:46.188Z,9.20
2019-04-28T02:17:17.552Z,9.25
2019-04-28T02:19:48.577Z,9.13
2019-04-28T02:22:43.212Z,9.09
2019-04-28T02:25:14.079Z,9.02
2019-04-28T02:27:44.996Z,9.08
2019-04-28T02:30:16.207Z,9.10
2019-04-28T02:32:47.246Z,9.09
2019-04-28T02:35:21.156Z,9.19
2019-04-28T02:37:51.074Z,9.11
2019-04-28T02:40:22.135Z,8.97
2019-04-28T02:42:53.197Z,8.97
2019-04-28T02:45:24.199Z,8.98
2019-04-28T02:48:01.025Z,9.01
2019-04-28T02:50:50.867Z,8.97
2019-04-28T02:53:33.599Z,9.07
2019-04-28T02:56:06.396Z,8.99
2019-04-28T02:58:37.228Z,9.03
2019-04-28T03:01:18.583Z,9.02
2019-04-28T03:03:41.151Z,9.02
2019-04-28T03:06:12.182Z,8.97
2019-04-28T03:08:43.185Z,8.95
2019-04-28T03:11:14.118Z,8.98
2019-04-28T03:13:45.189Z,8.97
2019-04-28T03:16:16.186Z,9.01
2019-04-28T03:18:47.390Z,8.95
2019-04-28T03:21:21.173Z,9.05
2019-04-28T03:23:51.850Z,9.08
2019-04-28T03:26:33.274Z,9.07
2019-04-28T03:29:17.361Z,9.08
2019-04-28T03:32:25.241Z,9.11
2019-04-28T03:34:53.972Z,9.18
2019-04-28T03:37:24.213Z,9.14
2019-04-28T03:39:55.602Z,9.13
2019-04-28T03:42:26.586Z,9.20
2019-04-28T03:45:01.050Z,9.32
2019-04-28T03:47:32.453Z,9.22
2019-04-28T03:50:03.392Z,9.24
2019-04-28T03:52:34.283Z,9.34
2019-04-28T03:55:06.430Z,9.28
2019-04-28T03:57:37.317Z,9.34
2019-04-28T04:00:10.945Z,9.24
2019-04-28T04:02:42.052Z,9.27
2019-04-28T04:05:13.060Z,9.16
2019-04-28T04:07:44.033Z,9.15
2019-04-28T04:10:35.136Z,9.07
2019-04-28T04:13:33.086Z,9.09
2019-04-28T04:16:30.815Z,9.12
2019-04-28T04:19:03.536Z,9.05
2019-04-28T04:21:34.792Z,9.05
2019-04-28T04:24:06.405Z,9.04
2019-04-28T04:26:37.372Z,9.07
2019-04-28T04:29:10.140Z,8.97
2019-04-28T04:31:41.451Z,8.97
2019-04-28T04:34:12.713Z,8.94
2019-04-28T04:36:43.863Z,8.90
2019-04-28T04:39:14.982Z,8.82
2019-04-28T04:41:45.999Z,8.82
2019-04-28T04:44:17.090Z,8.88
2019-04-28T04:46:50.737Z,8.88
2019-04-28T04:49:21.722Z,8.80
2019-04-28T04:51:52.878Z,8.88
2019-04-28T04:54:23.868Z,8.75
2019-04-28T04:56:54.967Z,8.77
2019-04-28T04:59:25.964Z,8.72
2019-04-28T05:02:26.579Z,8.78
2019-04-28T05:05:01.986Z,8.73
2019-04-28T05:07:33.316Z,8.69
2019-04-28T05:10:05.029Z,8.72
2019-04-28T05:12:36.492Z,8.72
2019-04-28T05:15:07.724Z,8.63
2019-04-28T05:17:40.180Z,8.73
2019-04-28T05:20:11.442Z,8.75
2019-04-28T05:22:50.539Z,8.82
2019-04-28T05:25:30.923Z,8.90
2019-04-28T05:28:02.946Z,8.91
2019-04-28T05:30:34.934Z,8.94
2019-04-28T05:33:06.628Z,8.91
2019-04-28T05:35:39.615Z,8.99
2019-04-28T05:38:10.375Z,9.04
2019-04-28T05:40:41.385Z,9.03
2019-04-28T05:43:12.382Z,9.03
2019-04-28T05:45:43.429Z,9.10
2019-04-28T05:48:16.110Z,9.04
2019-04-28T05:51:07.293Z,9.18
2019-04-28T05:53:46.533Z,9.10
2019-04-28T05:56:34.972Z,9.11
2019-04-28T05:59:17.043Z,9.18
2019-04-28T06:02:08.206Z,9.13
2019-04-28T06:04:40.533Z,9.14
2019-04-28T06:07:35.649Z,9.23
2019-04-28T06:10:07.569Z,9.26
2019-04-28T06:12:40.538Z,9.23
2019-04-28T06:15:12.225Z,9.26
2019-04-28T06:17:43.301Z,9.18
2019-04-28T06:20:14.275Z,9.32
2019-04-28T06:22:45.573Z,9.23
2019-04-28T06:25:16.601Z,9.31
2019-04-28T06:27:47.526Z,9.34
2019-04-28T06:30:18.505Z,9.44
2019-04-28T06:32:49.352Z,9.37
2019-04-28T06:35:20.444Z,9.40
2019-04-28T06:37:51.456Z,9.42
2019-04-28T06:40:22.334Z,9.52
2019-04-28T06:42:54.362Z,9.53
2019-04-28T06:45:25.372Z,9.53
2019-04-28T06:47:56.416Z,9.48
2019-04-28T06:50:27.414Z,9.51
2019-04-28T06:52:58.480Z,9.61
2019-04-28T06:55:29.387Z,9.48
2019-04-28T06:58:00.396Z,9.65
2019-04-28T07:00:31.411Z,9.67
2019-04-28T07:03:02.404Z,9.66
2019-04-28T07:05:33.522Z,9.70
2019-04-28T07:08:05.138Z,9.75
2019-04-28T07:10:36.348Z,9.88
2019-04-28T07:13:07.303Z,9.96
2019-04-28T07:15:42.144Z,9.81
2019-04-28T07:18:13.271Z,9.82
2019-04-28T07:21:25.741Z,9.85
2019-04-28T07:23:56.705Z,10.04
2019-04-28T07:26:41.842Z,10.19
2019-04-28T07:29:13.365Z,10.27
2019-04-28T07:31:49.774Z,10.14
2019-04-28T07:34:23.030Z,10.13
2019-04-28T07:37:00.065Z,10.07
2019-04-28T07:39:37.201Z,10.20
2019-04-28T07:42:07.983Z,10.35
2019-04-28T07:44:47.600Z,10.52
2019-04-28T07:47:20.926Z,10.43
2019-04-28T07:49:51.999Z,10.40
2019-04-28T07:52:38.536Z,10.32
2019-04-28T07:55:09.553Z,10.38
2019-04-28T07:57:40.991Z,10.53
2019-04-28T08:00:14.576Z,10.75
2019-04-28T08:02:45.655Z,10.76
2019-04-28T08:05:16.574Z,10.85
2019-04-28T08:07:47.673Z,11.11
2019-04-28T08:10:21.827Z,10.90
2019-04-28T08:12:52.821Z,10.79
2019-04-28T08:15:23.847Z,11.02
2019-04-28T08:17:54.889Z,10.87
2019-04-28T08:20:25.710Z,11.03
2019-04-28T08:22:57.273Z,11.05
2019-04-28T08:25:28.208Z,11.21
2019-04-28T08:27:59.220Z,11.09
2019-04-28T08:30:30.353Z,11.19
2019-04-28T08:33:29.420Z,11.16
2019-04-28T08:36:03.394Z,11.09
2019-04-28T08:38:34.556Z,11.19
2019-04-28T08:41:06.388Z,11.14
2019-04-28T08:43:49.300Z,11.13
2019-04-28T08:46:19.365Z,11.31
2019-04-28T08:48:53.846Z,11.37
2019-04-28T08:51:27.484Z,11.29
2019-04-28T08:53:58.531Z,11.42
2019-04-28T08:56:30.978Z,11.37
2019-04-28T08:59:04.863Z,11.61
2019-04-28T09:01:34.963Z,11.67
2019-04-28T09:04:15.249Z,11.69
2019-04-28T09:06:41.026Z,11.56
2019-04-28T09:09:16.626Z,11.84
2019-04-28T09:11:48.145Z,11.60
2019-04-28T09:14:19.286Z,11.73
2019-04-28T09:16:50.388Z,11.96
2019-04-28T09:19:21.464Z,11.95
2019-04-28T09:21:52.608Z,11.91
2019-04-28T09:24:23.656Z,11.90
2019-04-28T09:26:54.800Z,12.00
2019-04-28T09:29:25.973Z,12.03
2019-04-28T09:31:57.055Z,11.98
2019-04-28T09:34:39.951Z,12.03
2019-04-28T09:37:12.271Z,12.35
2019-04-28T09:39:48.008Z,12.58
2019-04-28T09:42:41.725Z,12.56
2019-04-28T09:45:19.535Z,12.65
2019-04-28T09:47:53.905Z,12.99
2019-04-28T09:50:26.034Z,13.13
2019-04-28T09:52:57.182Z,13.15
2019-04-28T09:55:33.358Z,13.49
2019-04-28T09:58:04.370Z,13.25
2019-04-28T10:00:37.084Z,13.21
2019-04-28T10:03:08.098Z,13.02
2019-04-28T10:05:39.003Z,12.96
2019-04-28T10:08:13.481Z,12.93
2019-04-28T10:10:45.894Z,13.29
2019-04-28T10:13:20.343Z,13.56
2019-04-28T10:15:54.355Z,13.59
2019-04-28T10:18:25.358Z,13.75
2019-04-28T10:20:56.418Z,13.81
2019-04-28T10:23:30.095Z,13.89
2019-04-28T10:26:02.380Z,14.17
2019-04-28T10:28:34.689Z,14.42
2019-04-28T10:31:21.529Z,13.99
2019-04-28T10:33:58.950Z,13.68
2019-04-28T10:36:38.358Z,13.71
2019-04-28T10:39:28.045Z,13.73
2019-04-28T10:41:59.294Z,14.16
2019-04-28T10:44:32.092Z,14.74
2019-04-28T10:47:04.639Z,14.84
2019-04-28T10:49:38.267Z,14.68
2019-04-28T10:52:11.963Z,14.90
2019-04-28T10:55:15.892Z,14.99
2019-04-28T10:57:53.146Z,14.74
2019-04-28T11:00:29.684Z,15.02
2019-04-28T11:03:01.255Z,14.89
2019-04-28T11:05:57.495Z,14.80
2019-04-28T11:08:43.818Z,15.07
2019-04-28T11:11:28.857Z,15.05
2019-04-28T11:14:08.156Z,15.50
2019-04-28T11:16:49.625Z,15.28
2019-04-28T11:19:36.852Z,15.13
2019-04-28T11:22:10.222Z,15.06
2019-04-28T11:24:41.744Z,14.90
2019-04-28T11:27:25.767Z,15.10
2019-04-28T11:29:57.127Z,15.10
2019-04-28T11:32:30.542Z,15.02
2019-04-28T11:35:21.700Z,14.90
2019-04-28T11:37:48.144Z,15.03
2019-04-28T11:40:22.012Z,14.69
2019-04-28T11:42:53.868Z,15.00
2019-04-28T11:45:35.681Z,14.96
2019-04-28T11:48:09.924Z,14.88
2019-04-28T11:50:48.874Z,14.94
2019-04-28T11:53:31.943Z,15.06
2019-04-28T11:56:10.580Z,15.08
2019-04-28T11:58:41.410Z,14.79
2019-04-28T12:01:17.554Z,14.53
2019-04-28T12:03:51.800Z,14.64
2019-04-28T12:06:22.791Z,13.84
2019-04-28T12:08:55.867Z,13.49
2019-04-28T12:11:33.822Z,13.13
2019-04-28T12:14:17.672Z,13.20
2019-04-28T12:17:35.118Z,13.21
2019-04-28T12:20:27.015Z,13.20
2019-04-28T12:23:00.622Z,12.97
2019-04-28T12:25:34.967Z,13.04
2019-04-28T12:28:13.354Z,13.02
2019-04-28T12:30:44.530Z,13.09
2019-04-28T12:33:22.696Z,13.19
2019-04-28T12:35:57.446Z,13.25
2019-04-28T12:38:30.951Z,13.01
2019-04-28T12:41:02.015Z,13.18
2019-04-28T12:43:33.067Z,13.16
2019-04-28T12:46:09.165Z,13.40
2019-04-28T12:48:40.300Z,13.56
2019-04-28T12:51:11.289Z,13.54
2019-04-28T12:53:42.241Z,13.30
2019-04-28T12:56:15.042Z,13.30
2019-04-28T12:58:47.954Z,13.40
2019-04-28T13:01:33.672Z,13.52
2019-04-28T13:04:29.557Z,13.51
2019-04-28T13:07:19.545Z,13.70
2019-04-28T13:09:50.571Z,13.88
2019-04-28T13:12:21.654Z,13.92
2019-04-28T13:14:52.587Z,13.63
2019-04-28T13:17:23.521Z,13.66
2019-04-28T13:19:54.512Z,13.75
2019-04-28T13:22:25.765Z,13.98
2019-04-28T13:24:57.181Z,13.91
2019-04-28T13:27:31.428Z,13.62
2019-04-28T13:30:04.768Z,13.66
2019-04-28T13:32:35.783Z,13.56
2019-04-28T13:35:09.096Z,13.61
2019-04-28T13:37:40.357Z,13.73
2019-04-28T13:40:16.673Z,13.82
2019-04-28T13:42:47.670Z,13.92
2019-04-28T13:45:21.285Z,13.94
2019-04-28T13:47:52.210Z,13.75
2019-04-28T13:50:34.671Z,13.91
2019-04-28T13:53:06.762Z,13.78
2019-04-28T13:56:05.944Z,13.65
2019-04-28T13:58:54.794Z,13.67
2019-04-28T14:01:56.965Z,13.77
2019-04-28T14:04:43.915Z,13.74
2019-04-28T14:07:14.920Z,13.82
2019-04-28T14:09:45.895Z,13.91
2019-04-28T14:12:16.740Z,13.89
2019-04-28T14:14:57.391Z,13.95
2019-04-28T14:17:44.053Z,13.99
2019-04-28T14:20:15.236Z,14.12
2019-04-28T14:23:01.659Z,14.16
2019-04-28T14:25:40.703Z,14.06
2019-04-28T14:28:11.775Z,14.00
2019-04-28T14:30:45.749Z,13.82
2019-04-28T14:33:16.962Z,13.87
2019-04-28T14:35:48.032Z,13.97
2019-04-28T14:38:19.080Z,13.91
2019-04-28T14:40:54.434Z,13.90
2019-04-28T14:43:55.762Z,14.12
2019-04-28T14:46:26.777Z,14.06
2019-04-28T14:48:57.704Z,14.31
2019-04-28T14:51:28.788Z,14.38
2019-04-28T14:53:59.666Z,14.16
2019-04-28T14:56:30.911Z,13.97
2019-04-28T14:59:04.285Z,14.03
2019-04-28T15:01:57.468Z,14.23
2019-04-28T15:04:47.405Z,14.27
2019-04-28T15:07:37.373Z,14.10
2019-04-28T15:10:16.522Z,14.20
2019-04-28T15:12:47.590Z,14.23
2019-04-28T15:15:20.163Z,14.27
2019-04-28T15:17:51.297Z,14.29
2019-04-28T15:20:22.311Z,14.37
2019-04-28T15:22:53.237Z,14.52
2019-04-28T15:25:24.101Z,14.66
2019-04-28T15:27:55.100Z,14.73
2019-04-28T15:30:26.125Z,14.77
2019-04-28T15:32:57.050Z,15.02
2019-04-28T15:35:27.978Z,14.84
2019-04-28T15:37:58.967Z,14.86
2019-04-28T15:40:29.895Z,14.80
2019-04-28T15:43:00.882Z,15.06
2019-04-28T15:45:32.015Z,14.89
2019-04-28T15:48:02.983Z,14.79
2019-04-28T15:50:34.213Z,14.65
2019-04-28T15:53:06.657Z,14.70
2019-04-28T15:55:44.314Z,14.57
2019-04-28T15:58:32.324Z,14.37
2019-04-28T16:01:03.528Z,14.45
2019-04-28T16:03:35.764Z,14.19
2019-04-28T16:06:07.063Z,14.13
2019-04-28T16:08:38.397Z,14.15
2019-04-28T16:11:09.355Z,14.32
2019-04-28T16:13:40.383Z,14.20
2019-04-28T16:16:11.388Z,14.39
2019-04-28T16:18:42.383Z,14.40
2019-04-28T16:21:13.400Z,14.35
2019-04-28T16:23:44.328Z,14.37
2019-04-28T16:26:15.366Z,14.34
2019-04-28T16:28:46.334Z,14.25
2019-04-28T16:31:17.294Z,14.07
2019-04-28T16:33:48.573Z,14.04
2019-04-28T16:36:19.530Z,14.03
2019-04-28T16:38:50.575Z,14.03
2019-04-28T16:41:31.981Z,14.11
2019-04-28T16:44:13.724Z,13.96
2019-04-28T16:46:44.773Z,14.06
2019-04-28T16:49:15.757Z,14.09
2019-04-28T16:51:46.712Z,14.14
2019-04-28T16:54:18.541Z,14.03
2019-04-28T16:56:59.301Z,14.05
2019-04-28T16:59:43.542Z,14.01
2019-04-28T17:02:23.307Z,14.17
2019-04-28T17:04:54.582Z,14.29
2019-04-28T17:07:25.479Z,14.24
2019-04-28T17:09:56.403Z,14.36
2019-04-28T17:12:27.425Z,14.38
2019-04-28T17:14:58.346Z,14.40
2019-04-28T17:17:29.305Z,14.37
2019-04-28T17:20:00.540Z,14.41
2019-04-28T17:22:31.434Z,14.32
2019-04-28T17:25:02.226Z,14.25
2019-04-28T17:27:33.373Z,14.15
2019-04-28T17:30:04.854Z,14.18
2019-04-28T17:32:35.822Z,14.15
2019-04-28T17:35:07.102Z,14.08
2019-04-28T17:37:39.482Z,14.00
2019-04-28T17:40:12.628Z,13.93
2019-04-28T17:42:43.463Z,13.90
2019-04-28T17:45:14.381Z,13.87
2019-04-28T17:47:46.135Z,13.81
2019-04-28T17:50:19.215Z,13.75
2019-04-28T17:52:50.173Z,13.74
2019-04-28T17:55:21.023Z,13.73
2019-04-28T17:57:52.056Z,13.71
2019-04-28T18:00:35.061Z,13.73
2019-04-28T18:03:14.740Z,13.71
2019-04-28T18:05:51.599Z,13.69
2019-04-28T18:08:22.851Z,13.66
2019-04-28T18:10:53.935Z,13.65
2019-04-28T18:13:24.899Z,13.62
2019-04-28T18:16:10.132Z,13.59
2019-04-28T18:18:44.778Z,13.59
2019-04-28T18:21:15.801Z,13.55
2019-04-28T18:23:46.778Z,13.48
2019-04-28T18:26:17.790Z,13.44
2019-04-28T18:28:48.799Z,13.41
2019-04-28T18:31:41.600Z,13.29
2019-04-28T18:34:29.718Z,13.18
2019-04-28T18:37:17.681Z,13.16
2019-04-28T18:40:16.298Z,13.07
2019-04-28T18:42:54.856Z,12.98
2019-04-28T18:45:25.787Z,12.90
2019-04-28T18:47:57.615Z,12.85
2019-04-28T18:50:28.682Z,12.75
2019-04-28T18:52:59.765Z,12.67
2019-04-28T18:55:30.809Z,12.65
2019-04-28T18:58:01.913Z,12.57
2019-04-28T19:00:35.155Z,12.51
2019-04-28T19:03:08.103Z,12.44
2019-04-28T19:05:42.591Z,12.35
2019-04-28T19:08:49.004Z,12.28
2019-04-28T19:11:35.945Z,12.24
2019-04-28T19:14:20.687Z,12.20
2019-04-28T19:17:19.348Z,12.16
2019-04-28T19:19:53.562Z,12.11
2019-04-28T19:22:24.668Z,12.01
2019-04-28T19:24:55.669Z,11.97
2019-04-28T19:27:26.575Z,11.93
2019-04-28T19:29:57.890Z,11.88
2019-04-28T19:32:30.927Z,11.81
2019-04-28T19:35:01.911Z,11.77
2019-04-28T19:37:34.416Z,11.73
2019-04-28T19:40:06.923Z,11.64
2019-04-28T19:42:37.860Z,11.58
2019-04-28T19:45:13.886Z,11.57
2019-04-28T19:47:45.414Z,11.43
2019-04-28T19:50:22.675Z,11.35
2019-04-28T19:52:56.578Z,11.31
2019-04-28T19:55:31.647Z,11.23
2019-04-28T19:58:18.893Z,11.12
2019-04-28T20:00:53.735Z,11.06
2019-04-28T20:03:24.696Z,11.00
2019-04-28T20:05:55.881Z,10.87
2019-04-28T20:08:26.949Z,10.83
2019-04-28T20:10:57.988Z,10.72
2019-04-28T20:13:31.386Z,10.58
2019-04-28T20:16:01.857Z,10.50
2019-04-28T20:18:32.947Z,10.35
2019-04-28T20:21:03.911Z,10.32
2019-04-28T20:23:34.793Z,10.30
2019-04-28T20:26:06.389Z,10.30
2019-04-28T20:28:37.351Z,10.31
2019-04-28T20:31:10.616Z,10.29
2019-04-28T20:33:44.942Z,10.27
2019-04-28T20:36:57.881Z,10.23
2019-04-28T20:39:30.949Z,10.17
2019-04-28T20:42:19.680Z,10.06
2019-04-28T20:44:52.056Z,9.96
2019-04-28T20:48:02.599Z,9.89
2019-04-28T20:50:27.391Z,9.87
2019-04-28T20:52:58.467Z,9.88
2019-04-28T20:55:29.568Z,9.90
2019-04-28T20:58:10.763Z,9.88
2019-04-28T21:00:41.742Z,9.84
2019-04-28T21:03:14.020Z,9.74
2019-04-28T21:05:51.554Z,9.70
2019-04-28T21:08:22.888Z,9.67
2019-04-28T21:10:54.824Z,9.61
2019-04-28T21:13:26.151Z,9.55
2019-04-28T21:15:57.195Z,9.46
2019-04-28T21:18:28.052Z,9.38
2019-04-28T21:20:59.025Z,9.35
2019-04-28T21:23:30.013Z,9.34
2019-04-28T21:26:00.940Z,9.31
2019-04-28T21:28:31.882Z,9.20
2019-04-28T21:31:03.242Z,9.16
2019-04-28T21:33:34.307Z,9.06
2019-04-28T21:36:05.320Z,9.07
2019-04-28T21:38:36.284Z,9.04
2019-04-28T21:41:07.348Z,9.01
2019-04-28T21:44:09.375Z,8.99
2019-04-28T21:46:47.162Z,8.98
2019-04-28T21:49:22.304Z,8.98
2019-04-28T21:51:53.233Z,8.92
2019-04-28T21:54:24.232Z,8.84
2019-04-28T21:56:55.219Z,8.77
2019-04-28T21:59:26.182Z,8.68
2019-04-28T22:01:57.207Z,8.68
2019-04-28T22:04:28.696Z,8.72
2019-04-28T22:06:59.740Z,8.74
2019-04-28T22:09:30.866Z,8.70
2019-04-28T22:12:01.863Z,8.59
2019-04-28T22:14:32.923Z,8.52
2019-04-28T22:17:04.429Z,8.44
2019-04-28T22:19:35.533Z,8.45
2019-04-28T22:22:06.594Z,8.46
2019-04-28T22:24:42.659Z,8.36
2019-04-28T22:27:15.660Z,8.28
2019-04-28T22:29:46.441Z,8.22
2019-04-28T22:32:17.498Z,8.25
2019-04-28T22:34:49.159Z,8.19
2019-04-28T22:37:20.788Z,8.16
2019-04-28T22:39:52.019Z,8.18
2019-04-28T22:42:24.133Z,8.15
2019-04-28T22:44:55.004Z,8.12
2019-04-28T22:47:25.905Z,8.09
2019-04-28T22:49:57.152Z,8.07
2019-04-28T22:52:28.246Z,8.00
2019-04-28T22:55:18.203Z,7.93
2019-04-28T22:58:06.953Z,7.84
2019-04-28T23:00:51.845Z,7.80
2019-04-28T23:03:39.327Z,7.78
2019-04-28T23:06:10.743Z,7.73
2019-04-28T23:08:41.649Z,7.70
2019-04-28T23:11:12.564Z,7.66
2019-04-28T23:13:43.611Z,7.61
2019-04-28T23:16:14.743Z,7.59
2019-04-28T23:18:45.922Z,7.57
2019-04-28T23:21:35.840Z,7.55
2019-04-28T23:24:07.049Z,7.50
2019-04-28T23:26:37.959Z,7.43
2019-04-28T23:29:09.114Z,7.35
2019-04-28T23:31:40.121Z,7.19
2019-04-28T23:34:11.228Z,7.15
2019-04-28T23:36:42.457Z,7.17
2019-04-28T23:39:13.532Z,7.15
2019-04-28T23:41:54.214Z,7.20
2019-04-28T23:44:28.007Z,7.22
2019-04-28T23:46:59.541Z,7.19
2019-04-28T23:49:31.068Z,7.21
2019-04-28T23:52:18.057Z,7.12
2019-04-28T23:54:51.312Z,7.03
2019-04-28T23:57:22.138Z,7.05
2019-04-28T23:59:53.420Z,7.07
